sensor_id;sensor_type;location;lat;lon;timestamp;temperature;humidity
18882;DHT22;9573;50.948;11.600;2022-08-24T00:02:06;16.20;99.90
18882;DHT22;9573;50.948;11.600;2022-08-24T00:04:33;16.10;99.90
18882;DHT22;9573;50.948;11.600;2022-08-24T00:07:02;16.10;99.90
18882;DHT22;9573;50.948;11.600;2022-08-24T00:09:30;16.10;99.90
18882;DHT22;9573;50.948;11.600;2022-08-24T00:11:58;16.10;99.90
18882;DHT22;9573;50.948;11.600;2022-08-24T00:14:27;16.00;99.90
18882;DHT22;9573;50.948;11.600;2022-08-24T00:16:55;16.00;99.90
18882;DHT22;9573;50.948;11.600;2022-08-24T00:19:23;16.00;99.90
18882;DHT22;9573;50.948;11.600;2022-08-24T00:21:52;16.00;99.90
18882;DHT22;9573;50.948;11.600;2022-08-24T00:24:20;16.00;99.90
18882;DHT22;9573;50.948;11.600;2022-08-24T00:26:48;15.90;99.90
18882;DHT22;9573;50.948;11.600;2022-08-24T00:29:16;15.90;99.90
18882;DHT22;9573;50.948;11.600;2022-08-24T00:31:45;15.90;99.90
18882;DHT22;9573;50.948;11.600;2022-08-24T00:34:13;15.90;99.90
18882;DHT22;9573;50.948;11.600;2022-08-24T00:36:41;15.80;99.90
18882;DHT22;9573;50.948;11.600;2022-08-24T00:39:09;15.80;99.90
18882;DHT22;9573;50.948;11.600;2022-08-24T00:41:39;15.80;99.90
18882;DHT22;9573;50.948;11.600;2022-08-24T00:44:07;15.70;99.90
18882;DHT22;9573;50.948;11.600;2022-08-24T00:46:41;15.70;99.90
18882;DHT22;9573;50.948;11.600;2022-08-24T00:49:17;15.70;99.90
18882;DHT22;9573;50.948;11.600;2022-08-24T00:51:51;15.70;99.90
18882;DHT22;9573;50.948;11.600;2022-08-24T00:54:24;15.70;99.90
18882;DHT22;9573;50.948;11.600;2022-08-24T00:56:55;15.60;99.90
18882;DHT22;9573;50.948;11.600;2022-08-24T00:59:28;15.60;99.90
18882;DHT22;9573;50.948;11.600;2022-08-24T01:01:58;15.60;99.90
18882;DHT22;9573;50.948;11.600;2022-08-24T01:04:36;15.60;99.90
18882;DHT22;9573;50.948;11.600;2022-08-24T01:07:05;15.60;99.90
18882;DHT22;9573;50.948;11.600;2022-08-24T01:09:32;15.60;99.90
18882;DHT22;9573;50.948;11.600;2022-08-24T01:11:59;15.50;99.90
18882;DHT22;9573;50.948;11.600;2022-08-24T01:14:27;15.50;99.90
18882;DHT22;9573;50.948;11.600;2022-08-24T01:16:55;15.40;99.90
18882;DHT22;9573;50.948;11.600;2022-08-24T01:19:41;15.40;99.90
18882;DHT22;9573;50.948;11.600;2022-08-24T01:22:32;15.40;99.90
18882;DHT22;9573;50.948;11.600;2022-08-24T01:25:08;15.40;99.90
18882;DHT22;9573;50.948;11.600;2022-08-24T01:27:36;15.40;99.90
18882;DHT22;9573;50.948;11.600;2022-08-24T01:30:07;15.40;99.90
18882;DHT22;9573;50.948;11.600;2022-08-24T01:32:36;15.30;99.90
18882;DHT22;9573;50.948;11.600;2022-08-24T01:35:04;15.30;99.90
18882;DHT22;9573;50.948;11.600;2022-08-24T01:37:32;15.30;99.90
18882;DHT22;9573;50.948;11.600;2022-08-24T01:40:03;15.30;99.90
18882;DHT22;9573;50.948;11.600;2022-08-24T01:42:34;15.20;99.90
18882;DHT22;9573;50.948;11.600;2022-08-24T01:45:05;15.20;99.90
18882;DHT22;9573;50.948;11.600;2022-08-24T01:47:33;15.20;99.90
18882;DHT22;9573;50.948;11.600;2022-08-24T01:50:00;15.20;99.90
18882;DHT22;9573;50.948;11.600;2022-08-24T01:52:28;15.20;99.90
18882;DHT22;9573;50.948;11.600;2022-08-24T01:54:55;15.20;99.90
18882;DHT22;9573;50.948;11.600;2022-08-24T01:57:25;15.10;99.90
18882;DHT22;9573;50.948;11.600;2022-08-24T01:59:52;15.10;99.90
18882;DHT22;9573;50.948;11.600;2022-08-24T02:02:23;15.10;99.90
18882;DHT22;9573;50.948;11.600;2022-08-24T02:04:53;15.10;99.90
18882;DHT22;9573;50.948;11.600;2022-08-24T02:07:20;15.00;99.90
18882;DHT22;9573;50.948;11.600;2022-08-24T02:09:47;15.00;99.90
18882;DHT22;9573;50.948;11.600;2022-08-24T02:12:15;15.00;99.90
18882;DHT22;9573;50.948;11.600;2022-08-24T02:14:44;15.00;99.90
18882;DHT22;9573;50.948;11.600;2022-08-24T02:17:12;15.00;99.90
18882;DHT22;9573;50.948;11.600;2022-08-24T02:19:39;14.90;99.90
18882;DHT22;9573;50.948;11.600;2022-08-24T02:22:07;14.90;99.90
18882;DHT22;9573;50.948;11.600;2022-08-24T02:24:35;14.90;99.90
18882;DHT22;9573;50.948;11.600;2022-08-24T02:27:02;14.90;99.90
18882;DHT22;9573;50.948;11.600;2022-08-24T02:29:30;14.90;99.90
18882;DHT22;9573;50.948;11.600;2022-08-24T02:31:58;14.90;99.90
18882;DHT22;9573;50.948;11.600;2022-08-24T02:34:26;14.90;99.90
18882;DHT22;9573;50.948;11.600;2022-08-24T02:36:53;14.80;99.90
18882;DHT22;9573;50.948;11.600;2022-08-24T02:39:20;14.80;99.90
18882;DHT22;9573;50.948;11.600;2022-08-24T02:41:47;14.80;99.90
18882;DHT22;9573;50.948;11.600;2022-08-24T02:44:14;14.80;99.90
18882;DHT22;9573;50.948;11.600;2022-08-24T02:46:41;14.70;99.90
18882;DHT22;9573;50.948;11.600;2022-08-24T02:49:10;14.70;99.90
18882;DHT22;9573;50.948;11.600;2022-08-24T02:51:40;14.70;99.90
18882;DHT22;9573;50.948;11.600;2022-08-24T02:54:09;14.70;99.90
18882;DHT22;9573;50.948;11.600;2022-08-24T02:56:36;14.70;99.90
18882;DHT22;9573;50.948;11.600;2022-08-24T02:59:04;14.70;99.90
18882;DHT22;9573;50.948;11.600;2022-08-24T03:01:31;14.70;99.90
18882;DHT22;9573;50.948;11.600;2022-08-24T03:03:58;14.60;99.90
18882;DHT22;9573;50.948;11.600;2022-08-24T03:06:27;14.60;99.90
18882;DHT22;9573;50.948;11.600;2022-08-24T03:08:54;14.70;99.90
18882;DHT22;9573;50.948;11.600;2022-08-24T03:11:21;14.70;99.90
18882;DHT22;9573;50.948;11.600;2022-08-24T03:13:48;14.60;99.90
18882;DHT22;9573;50.948;11.600;2022-08-24T03:16:16;14.60;99.90
18882;DHT22;9573;50.948;11.600;2022-08-24T03:18:43;14.60;99.90
18882;DHT22;9573;50.948;11.600;2022-08-24T03:21:10;14.50;99.90
18882;DHT22;9573;50.948;11.600;2022-08-24T03:23:39;14.50;99.90
18882;DHT22;9573;50.948;11.600;2022-08-24T03:26:06;14.50;99.90
18882;DHT22;9573;50.948;11.600;2022-08-24T03:28:33;14.50;99.90
18882;DHT22;9573;50.948;11.600;2022-08-24T03:31:00;14.40;99.90
18882;DHT22;9573;50.948;11.600;2022-08-24T03:33:27;14.40;99.90
18882;DHT22;9573;50.948;11.600;2022-08-24T03:35:54;14.40;99.90
18882;DHT22;9573;50.948;11.600;2022-08-24T03:38:22;14.40;99.90
18882;DHT22;9573;50.948;11.600;2022-08-24T03:40:50;14.40;99.90
18882;DHT22;9573;50.948;11.600;2022-08-24T03:43:18;14.40;99.90
18882;DHT22;9573;50.948;11.600;2022-08-24T03:46:05;14.40;99.90
18882;DHT22;9573;50.948;11.600;2022-08-24T03:48:33;14.30;99.90
18882;DHT22;9573;50.948;11.600;2022-08-24T03:51:01;14.30;99.90
18882;DHT22;9573;50.948;11.600;2022-08-24T03:53:29;14.30;99.90
18882;DHT22;9573;50.948;11.600;2022-08-24T03:55:59;14.30;99.90
18882;DHT22;9573;50.948;11.600;2022-08-24T03:58:27;14.30;99.90
18882;DHT22;9573;50.948;11.600;2022-08-24T04:00:54;14.30;99.90
18882;DHT22;9573;50.948;11.600;2022-08-24T04:03:22;14.30;99.90
18882;DHT22;9573;50.948;11.600;2022-08-24T04:05:50;14.30;99.90
18882;DHT22;9573;50.948;11.600;2022-08-24T04:08:17;14.20;99.90
18882;DHT22;9573;50.948;11.600;2022-08-24T04:10:45;14.20;99.90
18882;DHT22;9573;50.948;11.600;2022-08-24T04:13:14;14.20;99.90
18882;DHT22;9573;50.948;11.600;2022-08-24T04:15:42;14.20;99.90
18882;DHT22;9573;50.948;11.600;2022-08-24T04:18:09;14.30;99.90
18882;DHT22;9573;50.948;11.600;2022-08-24T04:20:37;14.30;99.90
18882;DHT22;9573;50.948;11.600;2022-08-24T04:23:06;14.20;99.90
18882;DHT22;9573;50.948;11.600;2022-08-24T04:25:41;14.30;99.90
18882;DHT22;9573;50.948;11.600;2022-08-24T04:28:09;14.30;99.90
18882;DHT22;9573;50.948;11.600;2022-08-24T04:30:40;14.30;99.90
18882;DHT22;9573;50.948;11.600;2022-08-24T04:33:09;14.30;99.90
18882;DHT22;9573;50.948;11.600;2022-08-24T04:35:37;14.30;99.90
18882;DHT22;9573;50.948;11.600;2022-08-24T04:38:05;14.30;99.90
18882;DHT22;9573;50.948;11.600;2022-08-24T04:40:33;14.40;99.90
18882;DHT22;9573;50.948;11.600;2022-08-24T04:43:00;14.50;99.90
18882;DHT22;9573;50.948;11.600;2022-08-24T04:45:29;14.50;99.90
18882;DHT22;9573;50.948;11.600;2022-08-24T04:47:58;14.60;99.90
18882;DHT22;9573;50.948;11.600;2022-08-24T04:50:25;14.60;99.90
18882;DHT22;9573;50.948;11.600;2022-08-24T04:52:52;14.70;99.90
18882;DHT22;9573;50.948;11.600;2022-08-24T04:55:19;14.70;99.90
18882;DHT22;9573;50.948;11.600;2022-08-24T04:57:46;14.80;99.90
18882;DHT22;9573;50.948;11.600;2022-08-24T05:00:14;14.90;99.90
18882;DHT22;9573;50.948;11.600;2022-08-24T05:02:42;15.00;99.90
18882;DHT22;9573;50.948;11.600;2022-08-24T05:05:11;15.10;99.90
18882;DHT22;9573;50.948;11.600;2022-08-24T05:07:39;15.10;99.90
18882;DHT22;9573;50.948;11.600;2022-08-24T05:10:07;15.20;99.90
18882;DHT22;9573;50.948;11.600;2022-08-24T05:12:35;15.30;99.90
18882;DHT22;9573;50.948;11.600;2022-08-24T05:15:04;15.50;99.90
18882;DHT22;9573;50.948;11.600;2022-08-24T05:17:32;15.60;99.90
18882;DHT22;9573;50.948;11.600;2022-08-24T05:19:59;15.70;99.90
18882;DHT22;9573;50.948;11.600;2022-08-24T05:22:28;15.70;99.90
18882;DHT22;9573;50.948;11.600;2022-08-24T05:24:55;15.80;99.90
18882;DHT22;9573;50.948;11.600;2022-08-24T05:27:22;16.10;99.90
18882;DHT22;9573;50.948;11.600;2022-08-24T05:29:52;17.00;99.90
18882;DHT22;9573;50.948;11.600;2022-08-24T05:32:19;18.60;99.90
18882;DHT22;9573;50.948;11.600;2022-08-24T05:34:47;20.00;99.90
18882;DHT22;9573;50.948;11.600;2022-08-24T05:37:14;21.30;99.90
18882;DHT22;9573;50.948;11.600;2022-08-24T05:39:43;22.50;99.90
18882;DHT22;9573;50.948;11.600;2022-08-24T05:42:10;23.40;99.90
18882;DHT22;9573;50.948;11.600;2022-08-24T05:44:38;24.10;99.90
18882;DHT22;9573;50.948;11.600;2022-08-24T05:47:05;24.80;99.90
18882;DHT22;9573;50.948;11.600;2022-08-24T05:49:32;25.30;99.90
18882;DHT22;9573;50.948;11.600;2022-08-24T05:51:59;25.50;99.90
18882;DHT22;9573;50.948;11.600;2022-08-24T05:54:27;25.80;99.90
18882;DHT22;9573;50.948;11.600;2022-08-24T05:56:55;26.40;99.90
18882;DHT22;9573;50.948;11.600;2022-08-24T05:59:28;27.10;99.90
18882;DHT22;9573;50.948;11.600;2022-08-24T06:01:56;27.50;99.90
18882;DHT22;9573;50.948;11.600;2022-08-24T06:04:23;27.70;99.50
18882;DHT22;9573;50.948;11.600;2022-08-24T06:06:51;27.90;97.70
18882;DHT22;9573;50.948;11.600;2022-08-24T06:09:18;27.80;96.20
18882;DHT22;9573;50.948;11.600;2022-08-24T06:11:46;27.80;96.10
18882;DHT22;9573;50.948;11.600;2022-08-24T06:14:16;28.00;94.90
18882;DHT22;9573;50.948;11.600;2022-08-24T06:16:45;28.30;93.40
18882;DHT22;9573;50.948;11.600;2022-08-24T06:19:15;28.80;93.20
18882;DHT22;9573;50.948;11.600;2022-08-24T06:21:43;29.60;91.70
18882;DHT22;9573;50.948;11.600;2022-08-24T06:24:11;30.30;86.70
18882;DHT22;9573;50.948;11.600;2022-08-24T06:26:40;30.90;84.20
18882;DHT22;9573;50.948;11.600;2022-08-24T06:29:26;31.50;80.60
18882;DHT22;9573;50.948;11.600;2022-08-24T06:31:53;32.00;77.50
18882;DHT22;9573;50.948;11.600;2022-08-24T06:34:22;33.10;73.50
18882;DHT22;9573;50.948;11.600;2022-08-24T06:36:50;33.80;70.40
18882;DHT22;9573;50.948;11.600;2022-08-24T06:39:18;34.50;65.90
18882;DHT22;9573;50.948;11.600;2022-08-24T06:41:45;34.80;62.20
18882;DHT22;9573;50.948;11.600;2022-08-24T06:44:12;34.90;61.10
18882;DHT22;9573;50.948;11.600;2022-08-24T06:46:40;35.60;59.80
18882;DHT22;9573;50.948;11.600;2022-08-24T06:49:08;36.50;58.20
18882;DHT22;9573;50.948;11.600;2022-08-24T06:51:35;37.00;56.80
18882;DHT22;9573;50.948;11.600;2022-08-24T06:54:03;37.30;55.30
18882;DHT22;9573;50.948;11.600;2022-08-24T06:56:31;37.90;53.80
18882;DHT22;9573;50.948;11.600;2022-08-24T06:58:59;37.90;52.50
18882;DHT22;9573;50.948;11.600;2022-08-24T07:01:27;38.20;52.30
18882;DHT22;9573;50.948;11.600;2022-08-24T07:03:56;38.50;51.80
18882;DHT22;9573;50.948;11.600;2022-08-24T07:06:24;38.70;51.00
18882;DHT22;9573;50.948;11.600;2022-08-24T07:08:51;39.20;50.50
18882;DHT22;9573;50.948;11.600;2022-08-24T07:11:21;39.40;50.50
18882;DHT22;9573;50.948;11.600;2022-08-24T07:13:49;40.00;48.80
18882;DHT22;9573;50.948;11.600;2022-08-24T07:16:20;40.50;48.00
18882;DHT22;9573;50.948;11.600;2022-08-24T07:18:47;40.60;47.40
18882;DHT22;9573;50.948;11.600;2022-08-24T07:21:17;40.50;47.00
18882;DHT22;9573;50.948;11.600;2022-08-24T07:23:45;40.20;46.90
18882;DHT22;9573;50.948;11.600;2022-08-24T07:26:14;40.90;46.80
18882;DHT22;9573;50.948;11.600;2022-08-24T07:28:44;41.00;45.80
18882;DHT22;9573;50.948;11.600;2022-08-24T07:31:11;40.80;45.80
18882;DHT22;9573;50.948;11.600;2022-08-24T07:33:38;41.30;45.70
18882;DHT22;9573;50.948;11.600;2022-08-24T07:36:06;41.70;45.00
18882;DHT22;9573;50.948;11.600;2022-08-24T07:38:35;42.20;44.80
18882;DHT22;9573;50.948;11.600;2022-08-24T07:41:02;42.30;44.30
18882;DHT22;9573;50.948;11.600;2022-08-24T07:43:29;42.60;44.10
18882;DHT22;9573;50.948;11.600;2022-08-24T07:45:56;42.80;43.80
18882;DHT22;9573;50.948;11.600;2022-08-24T07:48:23;43.20;42.90
18882;DHT22;9573;50.948;11.600;2022-08-24T07:50:52;43.20;42.50
18882;DHT22;9573;50.948;11.600;2022-08-24T07:53:20;43.80;42.40
18882;DHT22;9573;50.948;11.600;2022-08-24T07:55:53;44.10;42.00
18882;DHT22;9573;50.948;11.600;2022-08-24T07:58:21;44.40;41.80
18882;DHT22;9573;50.948;11.600;2022-08-24T08:00:49;43.90;41.30
18882;DHT22;9573;50.948;11.600;2022-08-24T08:03:16;43.80;41.80
18882;DHT22;9573;50.948;11.600;2022-08-24T08:05:44;43.40;42.00
18882;DHT22;9573;50.948;11.600;2022-08-24T08:08:14;43.30;41.90
18882;DHT22;9573;50.948;11.600;2022-08-24T08:10:41;43.80;42.10
18882;DHT22;9573;50.948;11.600;2022-08-24T08:13:09;43.90;41.60
18882;DHT22;9573;50.948;11.600;2022-08-24T08:15:36;44.10;41.50
18882;DHT22;9573;50.948;11.600;2022-08-24T08:18:04;43.60;41.90
18882;DHT22;9573;50.948;11.600;2022-08-24T08:20:31;43.60;42.20
18882;DHT22;9573;50.948;11.600;2022-08-24T08:22:59;43.50;42.70
18882;DHT22;9573;50.948;11.600;2022-08-24T08:25:46;43.70;42.90
18882;DHT22;9573;50.948;11.600;2022-08-24T08:28:15;43.90;42.80
18882;DHT22;9573;50.948;11.600;2022-08-24T08:30:44;44.00;42.20
18882;DHT22;9573;50.948;11.600;2022-08-24T08:33:11;43.90;42.20
18882;DHT22;9573;50.948;11.600;2022-08-24T08:35:39;43.40;42.60
18882;DHT22;9573;50.948;11.600;2022-08-24T08:38:09;43.90;42.80
18882;DHT22;9573;50.948;11.600;2022-08-24T08:40:45;44.30;42.30
18882;DHT22;9573;50.948;11.600;2022-08-24T08:43:36;44.60;41.60
18882;DHT22;9573;50.948;11.600;2022-08-24T08:46:17;44.40;41.90
18882;DHT22;9573;50.948;11.600;2022-08-24T08:49:17;44.60;41.70
18882;DHT22;9573;50.948;11.600;2022-08-24T08:52:16;43.80;42.40
18882;DHT22;9573;50.948;11.600;2022-08-24T08:55:02;43.40;43.10
18882;DHT22;9573;50.948;11.600;2022-08-24T08:57:57;43.20;44.10
18882;DHT22;9573;50.948;11.600;2022-08-24T09:00:50;43.00;43.90
18882;DHT22;9573;50.948;11.600;2022-08-24T09:03:31;42.10;44.20
18882;DHT22;9573;50.948;11.600;2022-08-24T09:06:25;41.40;45.40
18882;DHT22;9573;50.948;11.600;2022-08-24T09:09:19;41.10;45.80
18882;DHT22;9573;50.948;11.600;2022-08-24T09:12:06;39.30;48.00
18882;DHT22;9573;50.948;11.600;2022-08-24T09:14:53;39.30;48.70
18882;DHT22;9573;50.948;11.600;2022-08-24T09:17:41;39.90;48.10
18882;DHT22;9573;50.948;11.600;2022-08-24T09:20:22;40.40;47.50
18882;DHT22;9573;50.948;11.600;2022-08-24T09:23:04;41.40;47.20
18882;DHT22;9573;50.948;11.600;2022-08-24T09:25:41;41.90;45.20
18882;DHT22;9573;50.948;11.600;2022-08-24T09:28:26;41.70;44.80
18882;DHT22;9573;50.948;11.600;2022-08-24T09:34:16;41.40;45.50
18882;DHT22;9573;50.948;11.600;2022-08-24T09:36:53;41.10;44.80
18882;DHT22;9573;50.948;11.600;2022-08-24T09:39:36;41.10;45.50
18882;DHT22;9573;50.948;11.600;2022-08-24T09:42:45;41.30;45.30
18882;DHT22;9573;50.948;11.600;2022-08-24T09:49:31;38.70;48.50
18882;DHT22;9573;50.948;11.600;2022-08-24T09:52:53;39.20;48.50
18882;DHT22;9573;50.948;11.600;2022-08-24T09:58:56;36.60;51.90
18882;DHT22;9573;50.948;11.600;2022-08-24T10:01:54;35.90;52.70
18882;DHT22;9573;50.948;11.600;2022-08-24T10:04:40;35.50;53.50
18882;DHT22;9573;50.948;11.600;2022-08-24T10:07:16;35.10;54.50
18882;DHT22;9573;50.948;11.600;2022-08-24T10:10:12;34.40;55.30
18882;DHT22;9573;50.948;11.600;2022-08-24T10:12:55;33.80;56.20
18882;DHT22;9573;50.948;11.600;2022-08-24T10:15:32;34.10;56.90
18882;DHT22;9573;50.948;11.600;2022-08-24T10:18:18;33.90;56.50
18882;DHT22;9573;50.948;11.600;2022-08-24T10:21:12;34.10;55.90
18882;DHT22;9573;50.948;11.600;2022-08-24T10:23:57;34.10;56.30
18882;DHT22;9573;50.948;11.600;2022-08-24T10:26:44;33.80;56.60
18882;DHT22;9573;50.948;11.600;2022-08-24T10:29:36;33.40;57.30
18882;DHT22;9573;50.948;11.600;2022-08-24T10:32:19;32.90;58.70
18882;DHT22;9573;50.948;11.600;2022-08-24T10:35:01;32.20;59.60
18882;DHT22;9573;50.948;11.600;2022-08-24T10:38:07;31.90;60.40
18882;DHT22;9573;50.948;11.600;2022-08-24T10:41:24;31.80;61.20
18882;DHT22;9573;50.948;11.600;2022-08-24T10:44:42;31.90;60.70
18882;DHT22;9573;50.948;11.600;2022-08-24T10:47:19;31.90;60.40
18882;DHT22;9573;50.948;11.600;2022-08-24T10:50:15;31.90;60.80
18882;DHT22;9573;50.948;11.600;2022-08-24T10:53:18;32.70;59.90
18882;DHT22;9573;50.948;11.600;2022-08-24T10:55:59;32.40;59.40
18882;DHT22;9573;50.948;11.600;2022-08-24T10:58:41;32.00;60.00
18882;DHT22;9573;50.948;11.600;2022-08-24T11:01:23;32.00;60.70
18882;DHT22;9573;50.948;11.600;2022-08-24T11:03:57;32.00;61.10
18882;DHT22;9573;50.948;11.600;2022-08-24T11:06:31;32.20;61.00
18882;DHT22;9573;50.948;11.600;2022-08-24T11:09:05;32.20;61.40
18882;DHT22;9573;50.948;11.600;2022-08-24T11:11:36;32.60;60.50
18882;DHT22;9573;50.948;11.600;2022-08-24T11:14:07;32.50;60.00
18882;DHT22;9573;50.948;11.600;2022-08-24T11:16:38;32.10;60.40
18882;DHT22;9573;50.948;11.600;2022-08-24T11:19:10;31.90;61.10
18882;DHT22;9573;50.948;11.600;2022-08-24T11:21:46;32.60;60.50
18882;DHT22;9573;50.948;11.600;2022-08-24T11:24:29;34.30;57.60
18882;DHT22;9573;50.948;11.600;2022-08-24T11:27:08;35.40;55.50
18882;DHT22;9573;50.948;11.600;2022-08-24T11:32:41;36.00;54.30
18882;DHT22;9573;50.948;11.600;2022-08-24T11:35:21;36.80;52.40
18882;DHT22;9573;50.948;11.600;2022-08-24T11:37:53;37.00;52.20
18882;DHT22;9573;50.948;11.600;2022-08-24T11:40:28;37.70;51.00
18882;DHT22;9573;50.948;11.600;2022-08-24T11:43:08;37.90;50.10
18882;DHT22;9573;50.948;11.600;2022-08-24T11:45:43;38.80;48.90
18882;DHT22;9573;50.948;11.600;2022-08-24T11:48:24;38.40;48.70
18882;DHT22;9573;50.948;11.600;2022-08-24T11:50:57;37.50;49.30
18882;DHT22;9573;50.948;11.600;2022-08-24T11:53:36;37.00;48.80
18882;DHT22;9573;50.948;11.600;2022-08-24T11:56:13;36.20;51.00
18882;DHT22;9573;50.948;11.600;2022-08-24T11:58:50;37.40;50.50
18882;DHT22;9573;50.948;11.600;2022-08-24T12:01:25;38.50;48.60
18882;DHT22;9573;50.948;11.600;2022-08-24T12:04:06;37.20;48.80
18882;DHT22;9573;50.948;11.600;2022-08-24T12:06:48;35.50;51.80
18882;DHT22;9573;50.948;11.600;2022-08-24T12:09:41;34.70;54.30
18882;DHT22;9573;50.948;11.600;2022-08-24T12:12:21;34.20;54.60
18882;DHT22;9573;50.948;11.600;2022-08-24T12:14:54;34.40;55.40
18882;DHT22;9573;50.948;11.600;2022-08-24T12:17:29;35.50;53.90
18882;DHT22;9573;50.948;11.600;2022-08-24T12:20:03;35.30;53.90
18882;DHT22;9573;50.948;11.600;2022-08-24T12:22:47;36.00;53.40
18882;DHT22;9573;50.948;11.600;2022-08-24T12:25:16;37.10;51.80
18882;DHT22;9573;50.948;11.600;2022-08-24T12:28:03;36.90;50.60
18882;DHT22;9573;50.948;11.600;2022-08-24T12:30:32;37.50;50.50
18882;DHT22;9573;50.948;11.600;2022-08-24T12:33:02;38.50;49.70
18882;DHT22;9573;50.948;11.600;2022-08-24T12:35:35;38.80;48.60
18882;DHT22;9573;50.948;11.600;2022-08-24T12:38:12;38.60;48.30
18882;DHT22;9573;50.948;11.600;2022-08-24T12:40:43;38.70;48.00
18882;DHT22;9573;50.948;11.600;2022-08-24T12:43:19;37.80;48.90
18882;DHT22;9573;50.948;11.600;2022-08-24T12:45:49;35.90;50.30
18882;DHT22;9573;50.948;11.600;2022-08-24T12:48:22;35.70;52.00
18882;DHT22;9573;50.948;11.600;2022-08-24T12:51:04;35.90;51.80
18882;DHT22;9573;50.948;11.600;2022-08-24T12:53:58;37.00;50.90
18882;DHT22;9573;50.948;11.600;2022-08-24T12:57:02;37.60;49.40
18882;DHT22;9573;50.948;11.600;2022-08-24T12:59:39;37.80;49.00
18882;DHT22;9573;50.948;11.600;2022-08-24T13:02:26;36.80;49.40
18882;DHT22;9573;50.948;11.600;2022-08-24T13:05:03;35.10;52.20
18882;DHT22;9573;50.948;11.600;2022-08-24T13:07:39;34.60;53.90
18882;DHT22;9573;50.948;11.600;2022-08-24T13:10:12;34.00;54.60
18882;DHT22;9573;50.948;11.600;2022-08-24T13:15:53;33.30;56.10
18882;DHT22;9573;50.948;11.600;2022-08-24T13:18:46;32.80;57.00
18882;DHT22;9573;50.948;11.600;2022-08-24T13:21:34;32.20;57.30
18882;DHT22;9573;50.948;11.600;2022-08-24T13:28:00;31.30;58.60
18882;DHT22;9573;50.948;11.600;2022-08-24T13:33:44;30.80;59.90
18882;DHT22;9573;50.948;11.600;2022-08-24T13:37:02;30.60;60.80
18882;DHT22;9573;50.948;11.600;2022-08-24T13:39:58;30.40;62.80
18882;DHT22;9573;50.948;11.600;2022-08-24T13:42:45;30.40;63.00
18882;DHT22;9573;50.948;11.600;2022-08-24T13:45:31;30.60;61.90
18882;DHT22;9573;50.948;11.600;2022-08-24T13:48:14;30.50;62.60
18882;DHT22;9573;50.948;11.600;2022-08-24T13:51:10;30.20;63.60
18882;DHT22;9573;50.948;11.600;2022-08-24T13:54:01;29.90;64.30
18882;DHT22;9573;50.948;11.600;2022-08-24T13:56:45;29.60;64.40
18882;DHT22;9573;50.948;11.600;2022-08-24T13:59:37;29.60;65.10
18882;DHT22;9573;50.948;11.600;2022-08-24T14:02:32;29.50;65.90
18882;DHT22;9573;50.948;11.600;2022-08-24T14:05:12;29.50;66.10
18882;DHT22;9573;50.948;11.600;2022-08-24T14:07:52;29.40;65.70
18882;DHT22;9573;50.948;11.600;2022-08-24T14:10:36;29.10;66.50
18882;DHT22;9573;50.948;11.600;2022-08-24T14:13:23;29.00;67.10
18882;DHT22;9573;50.948;11.600;2022-08-24T14:16:00;29.10;66.80
18882;DHT22;9573;50.948;11.600;2022-08-24T14:18:57;29.20;66.20
18882;DHT22;9573;50.948;11.600;2022-08-24T14:21:37;29.30;66.10
18882;DHT22;9573;50.948;11.600;2022-08-24T14:24:10;29.10;66.50
18882;DHT22;9573;50.948;11.600;2022-08-24T14:27:02;29.10;67.00
18882;DHT22;9573;50.948;11.600;2022-08-24T14:29:45;29.20;67.10
18882;DHT22;9573;50.948;11.600;2022-08-24T14:32:30;29.10;67.20
18882;DHT22;9573;50.948;11.600;2022-08-24T14:35:21;29.00;67.70
18882;DHT22;9573;50.948;11.600;2022-08-24T14:41:07;28.90;69.00
18882;DHT22;9573;50.948;11.600;2022-08-24T14:44:01;28.90;69.80
18882;DHT22;9573;50.948;11.600;2022-08-24T14:46:37;28.60;70.30
18882;DHT22;9573;50.948;11.600;2022-08-24T14:49:15;28.50;70.80
18882;DHT22;9573;50.948;11.600;2022-08-24T14:51:57;28.50;71.30
18882;DHT22;9573;50.948;11.600;2022-08-24T14:54:37;28.50;71.60
18882;DHT22;9573;50.948;11.600;2022-08-24T15:00:21;28.30;71.50
18882;DHT22;9573;50.948;11.600;2022-08-24T15:03:10;28.30;72.00
18882;DHT22;9573;50.948;11.600;2022-08-24T15:05:59;28.20;71.00
18882;DHT22;9573;50.948;11.600;2022-08-24T15:08:34;28.20;70.90
18882;DHT22;9573;50.948;11.600;2022-08-24T15:11:09;28.20;71.50
18882;DHT22;9573;50.948;11.600;2022-08-24T15:13:43;28.20;71.90
18882;DHT22;9573;50.948;11.600;2022-08-24T15:16:17;28.40;72.20
18882;DHT22;9573;50.948;11.600;2022-08-24T15:18:53;28.40;71.60
18882;DHT22;9573;50.948;11.600;2022-08-24T15:21:39;28.50;72.00
18882;DHT22;9573;50.948;11.600;2022-08-24T15:24:18;28.40;72.70
18882;DHT22;9573;50.948;11.600;2022-08-24T15:26:57;28.40;73.30
18882;DHT22;9573;50.948;11.600;2022-08-24T15:29:32;28.20;73.70
18882;DHT22;9573;50.948;11.600;2022-08-24T15:32:04;28.00;74.10
18882;DHT22;9573;50.948;11.600;2022-08-24T15:34:37;27.90;74.50
18882;DHT22;9573;50.948;11.600;2022-08-24T15:37:11;27.80;74.50
18882;DHT22;9573;50.948;11.600;2022-08-24T15:39:38;27.80;74.60
18882;DHT22;9573;50.948;11.600;2022-08-24T15:42:11;27.70;74.80
18882;DHT22;9573;50.948;11.600;2022-08-24T15:44:44;27.90;74.60
18882;DHT22;9573;50.948;11.600;2022-08-24T15:47:25;27.80;74.50
18882;DHT22;9573;50.948;11.600;2022-08-24T15:49:57;27.90;74.30
18882;DHT22;9573;50.948;11.600;2022-08-24T15:52:46;28.00;74.50
18882;DHT22;9573;50.948;11.600;2022-08-24T15:55:34;28.10;74.30
18882;DHT22;9573;50.948;11.600;2022-08-24T15:58:31;28.10;73.50
18882;DHT22;9573;50.948;11.600;2022-08-24T16:01:18;28.10;73.50
18882;DHT22;9573;50.948;11.600;2022-08-24T16:04:07;28.20;74.40
18882;DHT22;9573;50.948;11.600;2022-08-24T16:06:39;28.10;75.30
18882;DHT22;9573;50.948;11.600;2022-08-24T16:09:32;28.20;74.70
18882;DHT22;9573;50.948;11.600;2022-08-24T16:12:04;28.30;75.10
18882;DHT22;9573;50.948;11.600;2022-08-24T16:14:35;28.00;75.00
18882;DHT22;9573;50.948;11.600;2022-08-24T16:17:23;27.80;76.30
18882;DHT22;9573;50.948;11.600;2022-08-24T16:19:55;27.70;77.00
18882;DHT22;9573;50.948;11.600;2022-08-24T16:22:30;27.50;77.10
18882;DHT22;9573;50.948;11.600;2022-08-24T16:25:21;27.60;77.40
18882;DHT22;9573;50.948;11.600;2022-08-24T16:28:07;27.60;77.70
18882;DHT22;9573;50.948;11.600;2022-08-24T16:30:45;27.50;78.60
18882;DHT22;9573;50.948;11.600;2022-08-24T16:33:37;27.40;79.00
18882;DHT22;9573;50.948;11.600;2022-08-24T16:36:09;27.40;79.10
18882;DHT22;9573;50.948;11.600;2022-08-24T16:38:39;27.30;78.90
18882;DHT22;9573;50.948;11.600;2022-08-24T16:41:08;27.20;78.90
18882;DHT22;9573;50.948;11.600;2022-08-24T16:43:39;27.20;79.30
18882;DHT22;9573;50.948;11.600;2022-08-24T16:46:09;27.20;79.50
18882;DHT22;9573;50.948;11.600;2022-08-24T16:48:39;27.10;79.80